sensor_id;sensor_type;location;lat;lon;timestamp;pressure;altitude;pressure_sealevel;temperature;humidity
62617;BME280;62539;51.190;6.808;2023-12-28T00:00:46;100826.22;;;18.18;63.30
62617;BME280;62539;51.190;6.808;2023-12-28T00:03:12;100827.09;;;18.18;63.12
62617;BME280;62539;51.190;6.808;2023-12-28T00:05:38;100820.97;;;18.18;63.22
62617;BME280;62539;51.190;6.808;2023-12-28T00:08:03;100829.72;;;18.18;63.23
62617;BME280;62539;51.190;6.808;2023-12-28T00:10:29;100831.44;;;18.19;62.62
62617;BME280;62539;51.190;6.808;2023-12-28T00:12:54;100822.78;;;18.17;62.38
62617;BME280;62539;51.190;6.808;2023-12-28T00:15:20;100833.28;;;18.17;62.18
62617;BME280;62539;51.190;6.808;2023-12-28T00:17:45;100824.59;;;18.15;62.16
62617;BME280;62539;51.190;6.808;2023-12-28T00:20:12;100845.59;;;18.15;61.71
62617;BME280;62539;51.190;6.808;2023-12-28T00:22:37;100836.03;;;18.13;61.78
62617;BME280;62539;51.190;6.808;2023-12-28T00:25:04;100834.31;;;18.12;61.75
62617;BME280;62539;51.190;6.808;2023-12-28T00:27:30;100840.47;;;18.11;61.63
62617;BME280;62539;51.190;6.808;2023-12-28T00:29:55;100840.53;;;18.09;61.62
62617;BME280;62539;51.190;6.808;2023-12-28T00:32:21;100836.19;;;18.08;61.67
62617;BME280;62539;51.190;6.808;2023-12-28T00:34:47;100829.22;;;18.07;61.61
62617;BME280;62539;51.190;6.808;2023-12-28T00:37:12;100830.13;;;18.06;61.52
62617;BME280;62539;51.190;6.808;2023-12-28T00:39:38;100836.28;;;18.05;61.50
62617;BME280;62539;51.190;6.808;2023-12-28T00:42:06;100846.78;;;18.05;61.55
62617;BME280;62539;51.190;6.808;2023-12-28T00:44:32;100859.09;;;18.03;61.44
62617;BME280;62539;51.190;6.808;2023-12-28T00:46:58;100860.81;;;18.04;61.47
62617;BME280;62539;51.190;6.808;2023-12-28T00:49:23;100856.50;;;18.01;61.30
62617;BME280;62539;51.190;6.808;2023-12-28T00:51:49;100877.56;;;18.00;61.54
62617;BME280;62539;51.190;6.808;2023-12-28T00:54:14;100876.72;;;17.98;61.52
62617;BME280;62539;51.190;6.808;2023-12-28T00:56:40;100869.75;;;17.97;61.59
62617;BME280;62539;51.190;6.808;2023-12-28T00:59:05;100863.69;;;17.95;61.61
62617;BME280;62539;51.190;6.808;2023-12-28T01:01:31;100866.31;;;17.95;61.66
62617;BME280;62539;51.190;6.808;2023-12-28T01:03:56;100865.50;;;17.92;61.46
62617;BME280;62539;51.190;6.808;2023-12-28T01:06:22;100866.41;;;17.91;61.63
62617;BME280;62539;51.190;6.808;2023-12-28T01:08:48;100864.69;;;17.90;61.57
62617;BME280;62539;51.190;6.808;2023-12-28T01:11:13;100877.00;;;17.88;61.47
62617;BME280;62539;51.190;6.808;2023-12-28T01:13:38;100871.75;;;17.88;61.50
62617;BME280;62539;51.190;6.808;2023-12-28T01:16:04;100885.78;;;17.87;61.67
62617;BME280;62539;51.190;6.808;2023-12-28T01:18:30;100889.31;;;17.86;61.66
62617;BME280;62539;51.190;6.808;2023-12-28T01:20:56;100891.13;;;17.84;61.62
62617;BME280;62539;51.190;6.808;2023-12-28T01:23:21;100880.63;;;17.84;61.67
62617;BME280;62539;51.190;6.808;2023-12-28T01:25:46;100879.75;;;17.84;61.62
62617;BME280;62539;51.190;6.808;2023-12-28T01:28:12;100871.06;;;17.82;61.69
62617;BME280;62539;51.190;6.808;2023-12-28T01:30:37;100889.47;;;17.80;61.79
62617;BME280;62539;51.190;6.808;2023-12-28T01:33:03;100900.88;;;17.79;61.83
62617;BME280;62539;51.190;6.808;2023-12-28T01:35:29;100905.31;;;17.77;62.05
62617;BME280;62539;51.190;6.808;2023-12-28T01:37:54;100905.34;;;17.75;61.99
62617;BME280;62539;51.190;6.808;2023-12-28T01:40:20;100913.28;;;17.74;61.84
62617;BME280;62539;51.190;6.808;2023-12-28T01:42:45;100913.28;;;17.74;61.90
62617;BME280;62539;51.190;6.808;2023-12-28T01:45:11;100920.34;;;17.72;61.90
62617;BME280;62539;51.190;6.808;2023-12-28T01:47:36;100914.22;;;17.71;61.97
62617;BME280;62539;51.190;6.808;2023-12-28T01:50:04;100919.53;;;17.70;62.09
62617;BME280;62539;51.190;6.808;2023-12-28T01:52:31;100919.53;;;17.70;62.05
62617;BME280;62539;51.190;6.808;2023-12-28T01:54:57;100927.41;;;17.68;62.00
62617;BME280;62539;51.190;6.808;2023-12-28T01:57:23;100927.47;;;17.67;62.09
62617;BME280;62539;51.190;6.808;2023-12-28T01:59:49;100920.50;;;17.66;62.13
62617;BME280;62539;51.190;6.808;2023-12-28T02:02:16;100931.91;;;17.65;62.12
62617;BME280;62539;51.190;6.808;2023-12-28T02:04:42;100927.56;;;17.63;62.19
62617;BME280;62539;51.190;6.808;2023-12-28T02:07:09;100925.84;;;17.62;62.20
62617;BME280;62539;51.190;6.808;2023-12-28T02:09:35;100932.00;;;17.61;62.35
62617;BME280;62539;51.190;6.808;2023-12-28T02:12:01;100925.88;;;17.61;62.25
62617;BME280;62539;51.190;6.808;2023-12-28T02:14:27;100932.06;;;17.58;61.92
62617;BME280;62539;51.190;6.808;2023-12-28T02:17:02;100937.31;;;17.58;62.10
62617;BME280;62539;51.190;6.808;2023-12-28T02:19:54;100931.19;;;17.58;62.29
62617;BME280;62539;51.190;6.808;2023-12-28T02:22:22;100929.47;;;17.57;62.21
62617;BME280;62539;51.190;6.808;2023-12-28T02:25:04;100921.66;;;17.55;62.19
62617;BME280;62539;51.190;6.808;2023-12-28T02:27:44;100932.16;;;17.55;62.37
62617;BME280;62539;51.190;6.808;2023-12-28T02:30:15;100937.41;;;17.55;62.36
62617;BME280;62539;51.190;6.808;2023-12-28T02:32:50;100935.69;;;17.54;62.31
62617;BME280;62539;51.190;6.808;2023-12-28T02:35:31;100915.59;;;17.53;62.36
62617;BME280;62539;51.190;6.808;2023-12-28T02:38:07;100935.78;;;17.51;62.27
62617;BME280;62539;51.190;6.808;2023-12-28T02:40:39;100931.44;;;17.50;62.28
62617;BME280;62539;51.190;6.808;2023-12-28T02:43:09;100935.81;;;17.49;62.50
62617;BME280;62539;51.190;6.808;2023-12-28T02:45:36;100932.34;;;17.49;62.37
62617;BME280;62539;51.190;6.808;2023-12-28T02:48:03;100927.94;;;17.49;62.34
62617;BME280;62539;51.190;6.808;2023-12-28T02:50:29;100934.97;;;17.49;62.26
62617;BME280;62539;51.190;6.808;2023-12-28T02:52:56;100925.38;;;17.48;62.38
62617;BME280;62539;51.190;6.808;2023-12-28T02:55:22;100929.75;;;17.47;62.28
62617;BME280;62539;51.190;6.808;2023-12-28T02:57:50;100934.97;;;17.47;62.45
62617;BME280;62539;51.190;6.808;2023-12-28T03:00:16;100922.78;;;17.46;62.37
62617;BME280;62539;51.190;6.808;2023-12-28T03:02:42;100929.78;;;17.46;62.32
62617;BME280;62539;51.190;6.808;2023-12-28T03:05:08;100915.81;;;17.45;62.13
62617;BME280;62539;51.190;6.808;2023-12-28T03:07:35;100920.22;;;17.45;62.37
62617;BME280;62539;51.190;6.808;2023-12-28T03:10:01;100920.22;;;17.45;62.25
62617;BME280;62539;51.190;6.808;2023-12-28T03:12:28;100931.59;;;17.44;62.53
62617;BME280;62539;51.190;6.808;2023-12-28T03:14:54;100921.03;;;17.45;62.24
62617;BME280;62539;51.190;6.808;2023-12-28T03:17:20;100928.97;;;17.44;62.33
62617;BME280;62539;51.190;6.808;2023-12-28T03:19:45;100925.47;;;17.43;62.14
62617;BME280;62539;51.190;6.808;2023-12-28T03:22:11;100932.50;;;17.43;62.36
62617;BME280;62539;51.190;6.808;2023-12-28T03:24:37;100936.03;;;17.42;62.42
62617;BME280;62539;51.190;6.808;2023-12-28T03:27:04;100930.78;;;17.42;62.33
62617;BME280;62539;51.190;6.808;2023-12-28T03:29:30;100931.63;;;17.42;62.17
62617;BME280;62539;51.190;6.808;2023-12-28T03:31:56;100928.16;;;17.42;62.34
62617;BME280;62539;51.190;6.808;2023-12-28T03:34:22;100934.31;;;17.41;62.29
62617;BME280;62539;51.190;6.808;2023-12-28T03:36:49;100929.06;;;17.41;62.12
62617;BME280;62539;51.190;6.808;2023-12-28T03:39:15;100922.94;;;17.40;62.10
62617;BME280;62539;51.190;6.808;2023-12-28T03:41:40;100922.09;;;17.40;62.28
62617;BME280;62539;51.190;6.808;2023-12-28T03:44:05;100928.25;;;17.39;62.04
62617;BME280;62539;51.190;6.808;2023-12-28T03:46:31;100923.91;;;17.38;62.24
62617;BME280;62539;51.190;6.808;2023-12-28T03:48:56;100916.94;;;17.37;62.38
62617;BME280;62539;51.190;6.808;2023-12-28T03:51:22;100915.22;;;17.36;62.21
62617;BME280;62539;51.190;6.808;2023-12-28T03:53:47;100909.97;;;17.36;62.27
62617;BME280;62539;51.190;6.808;2023-12-28T03:58:47;100903.00;;;17.34;62.27
62617;BME280;62539;51.190;6.808;2023-12-28T04:01:12;100902.13;;;17.34;62.38
62617;BME280;62539;51.190;6.808;2023-12-28T04:03:38;100903.91;;;17.33;62.26
62617;BME280;62539;51.190;6.808;2023-12-28T04:06:03;100920.53;;;17.32;62.49
62617;BME280;62539;51.190;6.808;2023-12-28T04:08:29;100921.44;;;17.31;62.16
62617;BME280;62539;51.190;6.808;2023-12-28T04:10:55;100918.81;;;17.31;62.36
62617;BME280;62539;51.190;6.808;2023-12-28T04:13:20;100914.47;;;17.30;62.36
62617;BME280;62539;51.190;6.808;2023-12-28T04:15:45;100915.38;;;17.29;62.30
62617;BME280;62539;51.190;6.808;2023-12-28T04:18:11;100920.63;;;17.29;62.25
62617;BME280;62539;51.190;6.808;2023-12-28T04:20:36;100909.25;;;17.29;62.20
62617;BME280;62539;51.190;6.808;2023-12-28T04:23:02;100918.94;;;17.27;62.16
62617;BME280;62539;51.190;6.808;2023-12-28T04:25:27;100911.94;;;17.27;62.32
62617;BME280;62539;51.190;6.808;2023-12-28T04:27:52;100899.72;;;17.26;62.34
62617;BME280;62539;51.190;6.808;2023-12-28T04:30:18;100904.09;;;17.26;62.12
62617;BME280;62539;51.190;6.808;2023-12-28T04:32:43;100908.50;;;17.25;62.33
62617;BME280;62539;51.190;6.808;2023-12-28T04:35:09;100909.41;;;17.24;61.59
62617;BME280;62539;51.190;6.808;2023-12-28T04:37:34;100918.97;;;17.25;61.93
62617;BME280;62539;51.190;6.808;2023-12-28T04:40:01;100921.47;;;17.30;62.14
62617;BME280;62539;51.190;6.808;2023-12-28T04:42:28;100922.19;;;17.37;62.17
62617;BME280;62539;51.190;6.808;2023-12-28T04:44:53;100908.00;;;17.44;62.10
62617;BME280;62539;51.190;6.808;2023-12-28T04:47:19;100913.06;;;17.50;61.76
62617;BME280;62539;51.190;6.808;2023-12-28T04:49:44;100925.13;;;17.57;61.69
62617;BME280;62539;51.190;6.808;2023-12-28T04:52:10;100929.28;;;17.65;61.06
62617;BME280;62539;51.190;6.808;2023-12-28T04:54:35;100933.44;;;17.72;61.34
62617;BME280;62539;51.190;6.808;2023-12-28T04:57:00;100942.81;;;17.81;60.89
62617;BME280;62539;51.190;6.808;2023-12-28T04:59:26;100931.28;;;17.86;60.80
62617;BME280;62539;51.190;6.808;2023-12-28T05:01:51;100934.66;;;17.91;60.33
62617;BME280;62539;51.190;6.808;2023-12-28T05:04:17;100930.97;;;17.97;60.23
62617;BME280;62539;51.190;6.808;2023-12-28T05:06:42;100921.28;;;17.99;60.42
62617;BME280;62539;51.190;6.808;2023-12-28T05:09:08;100930.88;;;18.02;60.30
62617;BME280;62539;51.190;6.808;2023-12-28T05:11:33;100924.66;;;18.04;60.04
62617;BME280;62539;51.190;6.808;2023-12-28T05:13:59;100927.25;;;18.06;60.06
62617;BME280;62539;51.190;6.808;2023-12-28T05:16:24;100924.53;;;18.09;59.77
62617;BME280;62539;51.190;6.808;2023-12-28T05:18:50;100937.56;;;18.12;59.97
62617;BME280;62539;51.190;6.808;2023-12-28T05:21:15;100940.94;;;18.16;60.14
62617;BME280;62539;51.190;6.808;2023-12-28T05:23:41;100939.09;;;18.19;59.91
62617;BME280;62539;51.190;6.808;2023-12-28T05:26:06;100943.34;;;18.24;59.63
62617;BME280;62539;51.190;6.808;2023-12-28T05:28:32;100948.47;;;18.28;59.85
62617;BME280;62539;51.190;6.808;2023-12-28T05:30:58;100957.16;;;18.30;59.58
62617;BME280;62539;51.190;6.808;2023-12-28T05:33:26;100959.75;;;18.32;59.41
62617;BME280;62539;51.190;6.808;2023-12-28T05:35:52;100952.69;;;18.34;59.36
62617;BME280;62539;51.190;6.808;2023-12-28T05:38:17;100959.66;;;18.35;59.30
62617;BME280;62539;51.190;6.808;2023-12-28T05:40:43;100956.13;;;18.36;59.31
62617;BME280;62539;51.190;6.808;2023-12-28T05:43:13;100959.59;;;18.36;59.24
62617;BME280;62539;51.190;6.808;2023-12-28T05:45:38;100963.09;;;18.37;59.08
62617;BME280;62539;51.190;6.808;2023-12-28T05:48:04;100961.22;;;18.41;59.29
62617;BME280;62539;51.190;6.808;2023-12-28T05:50:30;100968.16;;;18.43;59.42
62617;BME280;62539;51.190;6.808;2023-12-28T05:52:56;100968.91;;;18.47;59.32
62617;BME280;62539;51.190;6.808;2023-12-28T05:55:21;100974.13;;;18.48;59.17
62617;BME280;62539;51.190;6.808;2023-12-28T05:57:47;100967.06;;;18.50;58.99
62617;BME280;62539;51.190;6.808;2023-12-28T06:00:13;100976.66;;;18.51;58.55
62617;BME280;62539;51.190;6.808;2023-12-28T06:02:40;100981.00;;;18.53;58.95
62617;BME280;62539;51.190;6.808;2023-12-28T06:05:06;100977.50;;;18.52;58.86
62617;BME280;62539;51.190;6.808;2023-12-28T06:07:32;100979.28;;;18.51;59.14
62617;BME280;62539;51.190;6.808;2023-12-28T06:09:57;100977.56;;;18.50;58.63
62617;BME280;62539;51.190;6.808;2023-12-28T06:12:23;100983.72;;;18.49;58.39
62617;BME280;62539;51.190;6.808;2023-12-28T06:14:48;100980.28;;;18.47;58.85
62617;BME280;62539;51.190;6.808;2023-12-28T06:17:13;100984.72;;;18.45;58.23
62617;BME280;62539;51.190;6.808;2023-12-28T06:19:43;100986.53;;;18.43;58.19
62617;BME280;62539;51.190;6.808;2023-12-28T06:22:09;100983.91;;;18.43;58.70
62617;BME280;62539;51.190;6.808;2023-12-28T06:24:38;100983.03;;;18.43;58.62
62617;BME280;62539;51.190;6.808;2023-12-28T06:27:05;100987.34;;;18.45;59.15
62617;BME280;62539;51.190;6.808;2023-12-28T06:29:30;100987.28;;;18.47;59.00
62617;BME280;62539;51.190;6.808;2023-12-28T06:31:56;100998.59;;;18.50;58.98
62617;BME280;62539;51.190;6.808;2023-12-28T06:34:21;101001.13;;;18.54;58.79
62617;BME280;62539;51.190;6.808;2023-12-28T06:36:47;101003.63;;;18.57;58.83
62617;BME280;62539;51.190;6.808;2023-12-28T06:39:12;100991.28;;;18.59;58.66
62617;BME280;62539;51.190;6.808;2023-12-28T06:41:38;100993.91;;;18.59;58.44
62617;BME280;62539;51.190;6.808;2023-12-28T06:44:03;101000.91;;;18.60;58.77
62617;BME280;62539;51.190;6.808;2023-12-28T06:46:29;100993.91;;;18.59;58.60
62617;BME280;62539;51.190;6.808;2023-12-28T06:48:54;100992.16;;;18.59;58.53
62617;BME280;62539;51.190;6.808;2023-12-28T06:51:20;100993.06;;;18.58;58.68
62617;BME280;62539;51.190;6.808;2023-12-28T06:53:47;100987.81;;;18.58;58.58
62617;BME280;62539;51.190;6.808;2023-12-28T06:56:14;100989.63;;;18.56;58.41
62617;BME280;62539;51.190;6.808;2023-12-28T06:58:40;100981.81;;;18.55;58.03
62617;BME280;62539;51.190;6.808;2023-12-28T07:01:06;100978.38;;;18.53;58.43
62617;BME280;62539;51.190;6.808;2023-12-28T07:03:32;100990.69;;;18.50;58.37
62617;BME280;62539;51.190;6.808;2023-12-28T07:06:01;100990.69;;;18.50;58.69
62617;BME280;62539;51.190;6.808;2023-12-28T07:08:28;100995.88;;;18.52;58.68
62617;BME280;62539;51.190;6.808;2023-12-28T07:10:54;100987.06;;;18.55;58.63
62617;BME280;62539;51.190;6.808;2023-12-28T07:13:19;100985.22;;;18.57;58.50
62617;BME280;62539;51.190;6.808;2023-12-28T07:15:45;100993.91;;;18.59;58.66
62617;BME280;62539;51.190;6.808;2023-12-28T07:18:10;101004.34;;;18.62;58.44
62617;BME280;62539;51.190;6.808;2023-12-28T07:20:36;101013.84;;;18.66;58.16
62617;BME280;62539;51.190;6.808;2023-12-28T07:23:01;101007.69;;;18.67;58.37
62617;BME280;62539;51.190;6.808;2023-12-28T07:25:28;101013.81;;;18.68;58.29
62617;BME280;62539;51.190;6.808;2023-12-28T07:27:53;101010.28;;;18.69;58.44
62617;BME280;62539;51.190;6.808;2023-12-28T07:30:18;101010.31;;;18.67;58.15
62617;BME280;62539;51.190;6.808;2023-12-28T07:32:44;101013.00;;;18.65;57.68
62617;BME280;62539;51.190;6.808;2023-12-28T07:35:10;101018.28;;;18.64;57.84
62617;BME280;62539;51.190;6.808;2023-12-28T07:37:37;101013.94;;;18.63;57.69
62617;BME280;62539;51.190;6.808;2023-12-28T07:40:03;101011.41;;;18.60;57.54
62617;BME280;62539;51.190;6.808;2023-12-28T07:42:29;101014.94;;;18.59;57.74
62617;BME280;62539;51.190;6.808;2023-12-28T07:44:55;101027.25;;;18.57;57.40
62617;BME280;62539;51.190;6.808;2023-12-28T07:47:20;101023.84;;;18.55;57.98
62617;BME280;62539;51.190;6.808;2023-12-28T07:49:46;101032.63;;;18.54;57.90
62617;BME280;62539;51.190;6.808;2023-12-28T07:52:11;101049.34;;;18.51;58.27
62617;BME280;62539;51.190;6.808;2023-12-28T07:54:36;101045.06;;;18.48;58.37
62617;BME280;62539;51.190;6.808;2023-12-28T07:57:02;101050.31;;;18.48;58.29
62617;BME280;62539;51.190;6.808;2023-12-28T07:59:28;101046.78;;;18.49;58.74
62617;BME280;62539;51.190;6.808;2023-12-28T08:01:53;101053.66;;;18.54;58.65
62617;BME280;62539;51.190;6.808;2023-12-28T08:04:18;101050.88;;;18.58;58.87
62617;BME280;62539;51.190;6.808;2023-12-28T08:06:44;101053.34;;;18.63;58.54
62617;BME280;62539;51.190;6.808;2023-12-28T08:09:09;101053.25;;;18.66;58.61
62617;BME280;62539;51.190;6.808;2023-12-28T08:11:35;101042.66;;;18.69;58.62
62617;BME280;62539;51.190;6.808;2023-12-28T08:14:00;101045.19;;;18.72;58.58
62617;BME280;62539;51.190;6.808;2023-12-28T08:16:26;101045.91;;;18.77;58.66
62617;BME280;62539;51.190;6.808;2023-12-28T08:18:52;101047.53;;;18.81;58.97
62617;BME280;62539;51.190;6.808;2023-12-28T08:21:17;101046.53;;;18.86;58.74
62617;BME280;62539;51.190;6.808;2023-12-28T08:23:43;101047.34;;;18.88;58.93
62617;BME280;62539;51.190;6.808;2023-12-28T08:26:09;101041.06;;;18.92;58.75
62617;BME280;62539;51.190;6.808;2023-12-28T08:28:35;101038.34;;;18.95;58.77
62617;BME280;62539;51.190;6.808;2023-12-28T08:31:01;101036.56;;;18.97;59.14
62617;BME280;62539;51.190;6.808;2023-12-28T08:33:26;101046.22;;;18.97;58.99
62617;BME280;62539;51.190;6.808;2023-12-28T08:35:52;101051.50;;;18.95;59.43
62617;BME280;62539;51.190;6.808;2023-12-28T08:38:17;101055.84;;;18.96;58.88
62617;BME280;62539;51.190;6.808;2023-12-28T08:40:43;101058.47;;;18.96;59.16
62617;BME280;62539;51.190;6.808;2023-12-28T08:43:09;101066.44;;;18.93;59.18
62617;BME280;62539;51.190;6.808;2023-12-28T08:45:35;101062.16;;;18.90;59.41
62617;BME280;62539;51.190;6.808;2023-12-28T08:48:02;101068.38;;;18.88;59.34
62617;BME280;62539;51.190;6.808;2023-12-28T08:50:28;101066.63;;;18.88;59.28
62617;BME280;62539;51.190;6.808;2023-12-28T08:52:54;101075.34;;;18.89;59.87
62617;BME280;62539;51.190;6.808;2023-12-28T08:55:21;101067.38;;;18.92;59.47
62617;BME280;62539;51.190;6.808;2023-12-28T08:57:46;101074.25;;;18.96;59.21
62617;BME280;62539;51.190;6.808;2023-12-28T09:00:13;101068.91;;;18.99;59.23
62617;BME280;62539;51.190;6.808;2023-12-28T09:02:42;101079.34;;;19.02;59.03
62617;BME280;62539;51.190;6.808;2023-12-28T09:05:09;101079.22;;;19.07;58.81
62617;BME280;62539;51.190;6.808;2023-12-28T09:07:35;101083.41;;;19.13;59.10
62617;BME280;62539;51.190;6.808;2023-12-28T09:10:01;101074.50;;;19.17;59.07
62617;BME280;62539;51.190;6.808;2023-12-28T09:12:28;101079.66;;;19.20;59.06
62617;BME280;62539;51.190;6.808;2023-12-28T09:14:54;101083.09;;;19.22;58.66
62617;BME280;62539;51.190;6.808;2023-12-28T09:17:22;101074.28;;;19.24;58.73
62617;BME280;62539;51.190;6.808;2023-12-28T09:19:48;101068.00;;;19.29;58.33
62617;BME280;62539;51.190;6.808;2023-12-28T09:22:13;101074.00;;;19.32;58.80
62617;BME280;62539;51.190;6.808;2023-12-28T09:24:38;101074.91;;;19.31;58.59
62617;BME280;62539;51.190;6.808;2023-12-28T09:27:04;101085.50;;;19.30;58.52
62617;BME280;62539;51.190;6.808;2023-12-28T09:29:29;101088.97;;;19.30;58.67
62617;BME280;62539;51.190;6.808;2023-12-28T09:31:55;101079.25;;;19.32;58.39
62617;BME280;62539;51.190;6.808;2023-12-28T09:34:20;101074.59;;;19.41;58.29
62617;BME280;62539;51.190;6.808;2023-12-28T09:36:45;101085.84;;;19.46;57.53
62617;BME280;62539;51.190;6.808;2023-12-28T09:39:11;101084.03;;;19.48;57.91
62617;BME280;62539;51.190;6.808;2023-12-28T09:41:39;101093.53;;;19.52;57.74
62617;BME280;62539;51.190;6.808;2023-12-28T09:44:12;101105.44;;;19.64;57.36
62617;BME280;62539;51.190;6.808;2023-12-28T09:46:41;101099.84;;;19.73;57.53
62617;BME280;62539;51.190;6.808;2023-12-28T09:49:07;101099.66;;;19.79;57.33
62617;BME280;62539;51.190;6.808;2023-12-28T09:51:34;101093.34;;;19.83;57.27
62617;BME280;62539;51.190;6.808;2023-12-28T09:54:00;101083.56;;;19.87;57.10
62617;BME280;62539;51.190;6.808;2023-12-28T09:56:28;101083.56;;;19.87;57.02
62617;BME280;62539;51.190;6.808;2023-12-28T09:58:55;101077.19;;;19.94;56.58
62617;BME280;62539;51.190;6.808;2023-12-28T10:01:22;101084.06;;;19.98;56.62
62617;BME280;62539;51.190;6.808;2023-12-28T10:03:48;101083.97;;;20.02;56.59
62617;BME280;62539;51.190;6.808;2023-12-28T10:06:13;101075.97;;;20.05;56.56
62617;BME280;62539;51.190;6.808;2023-12-28T10:08:48;101087.25;;;20.08;56.16
62617;BME280;62539;51.190;6.808;2023-12-28T10:11:18;101078.38;;;20.11;56.20
62617;BME280;62539;51.190;6.808;2023-12-28T10:13:44;101080.78;;;20.17;55.84
62617;BME280;62539;51.190;6.808;2023-12-28T10:16:11;101071.81;;;20.23;55.29
62617;BME280;62539;51.190;6.808;2023-12-28T10:18:41;101076.78;;;20.31;55.58
62617;BME280;62539;51.190;6.808;2023-12-28T10:21:07;101077.47;;;20.36;55.62
62617;BME280;62539;51.190;6.808;2023-12-28T10:23:33;101082.63;;;20.39;55.52
62617;BME280;62539;51.190;6.808;2023-12-28T10:25:59;101078.97;;;20.43;55.58
62617;BME280;62539;51.190;6.808;2023-12-28T10:28:25;101075.41;;;20.44;55.26
62617;BME280;62539;51.190;6.808;2023-12-28T10:30:56;101075.94;;;20.54;54.92
62617;BME280;62539;51.190;6.808;2023-12-28T10:33:22;101087.09;;;20.61;55.36
62617;BME280;62539;51.190;6.808;2023-12-28T10:35:50;101095.78;;;20.63;54.71
62617;BME280;62539;51.190;6.808;2023-12-28T10:38:17;101093.03;;;20.66;55.23
62617;BME280;62539;51.190;6.808;2023-12-28T10:40:44;101100.50;;;20.78;54.66
62617;BME280;62539;51.190;6.808;2023-12-28T10:43:15;101086.72;;;20.70;54.96
62617;BME280;62539;51.190;6.808;2023-12-28T10:45:42;101092.59;;;20.54;54.89
62617;BME280;62539;51.190;6.808;2023-12-28T10:48:12;101085.09;;;20.44;55.57
62617;BME280;62539;51.190;6.808;2023-12-28T10:50:40;101079.19;;;20.37;55.72
62617;BME280;62539;51.190;6.808;2023-12-28T10:56:47;101080.34;;;20.30;55.65
62617;BME280;62539;51.190;6.808;2023-12-28T10:59:39;101076.91;;;20.27;55.14
62617;BME280;62539;51.190;6.808;2023-12-28T11:02:28;101069.88;;;20.28;54.70
62617;BME280;62539;51.190;6.808;2023-12-28T11:05:03;101075.97;;;20.29;55.09
62617;BME280;62539;51.190;6.808;2023-12-28T11:07:32;101058.09;;;20.37;55.34
62617;BME280;62539;51.190;6.808;2023-12-28T11:10:00;101060.75;;;20.37;55.84
62617;BME280;62539;51.190;6.808;2023-12-28T11:12:27;101058.63;;;20.47;54.91
62617;BME280;62539;51.190;6.808;2023-12-28T11:14:53;101062.00;;;20.50;55.05
62617;BME280;62539;51.190;6.808;2023-12-28T11:17:21;101063.13;;;20.67;54.60
62617;BME280;62539;51.190;6.808;2023-12-28T11:19:50;101078.13;;;20.65;54.75
62617;BME280;62539;51.190;6.808;2023-12-28T11:22:19;101060.59;;;20.64;54.06
62617;BME280;62539;51.190;6.808;2023-12-28T11:24:47;101071.84;;;20.69;54.32
62617;BME280;62539;51.190;6.808;2023-12-28T11:27:12;101067.25;;;20.74;54.40
62617;BME280;62539;51.190;6.808;2023-12-28T11:29:38;101067.47;;;20.68;54.67
62617;BME280;62539;51.190;6.808;2023-12-28T11:32:04;101055.34;;;20.64;54.86
62617;BME280;62539;51.190;6.808;2023-12-28T11:34:31;101046.38;;;20.68;54.41
62617;BME280;62539;51.190;6.808;2023-12-28T11:37:06;101036.59;;;20.71;54.06
62617;BME280;62539;51.190;6.808;2023-12-28T11:39:36;101044.22;;;20.79;54.37
62617;BME280;62539;51.190;6.808;2023-12-28T11:42:07;101030.53;;;21.14;53.60
62617;BME280;62539;51.190;6.808;2023-12-28T11:44:39;101038.31;;;21.58;52.50
62617;BME280;62539;51.190;6.808;2023-12-28T11:47:13;101035.34;;;22.08;51.22
62617;BME280;62539;51.190;6.808;2023-12-28T11:49:39;101033.59;;;22.46;50.56
62617;BME280;62539;51.190;6.808;2023-12-28T11:52:06;101027.88;;;22.75;49.38
62617;BME280;62539;51.190;6.808;2023-12-28T11:54:32;101023.00;;;23.02;49.11
62617;BME280;62539;51.190;6.808;2023-12-28T11:56:58;101031.31;;;22.95;48.97
62617;BME280;62539;51.190;6.808;2023-12-28T11:59:23;101040.25;;;22.55;49.72
62617;BME280;62539;51.190;6.808;2023-12-28T12:01:50;101038.56;;;22.14;50.78
62617;BME280;62539;51.190;6.808;2023-12-28T12:04:20;101040.41;;;21.72;51.53
62617;BME280;62539;51.190;6.808;2023-12-28T12:06:47;101040.78;;;21.42;52.10
62617;BME280;62539;51.190;6.808;2023-12-28T12:09:14;101028.22;;;21.27;51.55
62617;BME280;62539;51.190;6.808;2023-12-28T12:11:40;101019.66;;;21.22;51.87
62617;BME280;62539;51.190;6.808;2023-12-28T12:14:11;101023.59;;;21.11;51.88
62617;BME280;62539;51.190;6.808;2023-12-28T12:16:37;101014.97;;;21.08;51.58
62617;BME280;62539;51.190;6.808;2023-12-28T12:19:06;101017.09;;;20.98;51.37
62617;BME280;62539;51.190;6.808;2023-12-28T12:21:33;101008.41;;;20.96;51.17
62617;BME280;62539;51.190;6.808;2023-12-28T12:23:59;101014.69;;;20.93;51.19
62617;BME280;62539;51.190;6.808;2023-12-28T12:26:26;101024.22;;;20.96;52.45
62617;BME280;62539;51.190;6.808;2023-12-28T12:28:52;101004.97;;;20.94;51.73
62617;BME280;62539;51.190;6.808;2023-12-28T12:31:18;101007.69;;;20.92;52.01
62617;BME280;62539;51.190;6.808;2023-12-28T12:33:44;100992.28;;;20.81;51.04
62617;BME280;62539;51.190;6.808;2023-12-28T12:36:10;100994.28;;;20.75;51.12
62617;BME280;62539;51.190;6.808;2023-12-28T12:38:36;101009.03;;;20.80;51.73
62617;BME280;62539;51.190;6.808;2023-12-28T12:41:02;100999.00;;;20.66;48.76
62617;BME280;62539;51.190;6.808;2023-12-28T12:43:28;100982.25;;;20.45;45.23
62617;BME280;62539;51.190;6.808;2023-12-28T12:45:53;100987.84;;;20.60;45.99
62617;BME280;62539;51.190;6.808;2023-12-28T12:48:19;100986.44;;;20.73;46.27
62617;BME280;62539;51.190;6.808;2023-12-28T12:50:44;100979.31;;;20.75;46.79
62617;BME280;62539;51.190;6.808;2023-12-28T12:53:10;100984.00;;;20.91;46.75